Coral Princess — ZCDF4 — position and weather

sailwx.info

Track history (hours):
 
Tides and Currents Weather Stations Pressure Air Temp Water Temp Dewpoint Dewpoint Depression Visibility Wind Speed Wind Dir Waves Ship Positions

Coral Princess

Operator: Princess Cruises

Last reported at 2018-Sep-24 07:00 UTC. Time now 2018-Sep-24 21:01 UTC.
Position N 56°00' W 133°54'.

Type: Passenger vessel. MMSI: 310376000.

Wind from 220 at 20 knots

Barometer 1018.7 mb
Air temperature 11.6 ° C
Visibility: greater than 10.8 NM
Dewpoint 9.8 ° C
Water temperature 10.0 ° C

Date/timePositionNaut miles runAvg speedWind from/ knotsBaromVisibWave heightAir tempDewpointWater temp
2018-Sep-24 07:00N 56°00' W 133°54'112 6.0 220 / 201018.710.8 11.6 9.810.0
2018-Sep-23 12:19N 54°59' W 131°09'414.7
2018-Sep-23 12:03N 54°55' W 131°08'2115.0
2018-Sep-23 10:41N 54°35' W 131°18'316.0
2018-Sep-23 10:30N 54°32' W 131°16'716.0
2018-Sep-23 10:03N 54°26' W 131°11'116.5
2018-Sep-23 10:00N 54°25' W 131°11'816.1
2018-Sep-23 09:30N 54°17' W 131°06'716.3
2018-Sep-23 09:03N 54°10' W 131°02'116.3
2018-Sep-23 09:00N 54°10' W 131°01'816.3
2018-Sep-23 08:30N 54°02' W 130°59'817.4
2018-Sep-23 08:03N 53°54' W 130°56'118.2
2018-Sep-23 08:00N 53°53' W 130°56'918.0
2018-Sep-23 07:30N 53°44' W 130°54'1428.1
2018-Sep-23 07:00N 53°30' W 130°48'447.8 320 / 81017.310.8 13.011.312.0
2018-Sep-23 06:55N 53°34' W 130°51'717.7
2018-Sep-23 06:30N 53°27' W 130°48'818.1
2018-Sep-23 06:03N 53°19' W 130°45'118.1
2018-Sep-23 06:00N 53°18' W 130°45'917.8
2018-Sep-23 05:30N 53°09' W 130°42'715.8
2018-Sep-23 05:04N 53°02' W 130°39'114.7
2018-Sep-23 05:01N 53°02' W 130°39'714.5
2018-Sep-23 04:30N 52°55' W 130°35'715.3
2018-Sep-23 04:04N 52°48' W 130°32'117.9
2018-Sep-23 04:01N 52°47' W 130°31'918.0
2018-Sep-23 03:30N 52°39' W 130°27'818.2
2018-Sep-23 03:03N 52°31' W 130°23'118.5
2018-Sep-23 03:00N 52°30' W 130°23'918.5
2018-Sep-23 02:30N 52°21' W 130°18'917.8
2018-Sep-23 02:01N 52°13' W 130°14'117.9
2018-Sep-23 01:59N 52°12' W 130°14'917.9
2018-Sep-23 01:30N 52°04' W 130°10'817.9
2018-Sep-23 01:03N 51°56' W 130°06'117.3
2018-Sep-23 01:00N 51°55' W 130°06'917.4
2018-Sep-23 00:30N 51°47' W 130°01'716.9
2018-Sep-23 00:03N 51°40' W 129°58'116.5
2018-Sep-23 00:01N 51°39' W 129°57'916.9
2018-Sep-22 23:27N 51°30' W 129°53'717.0
2018-Sep-22 23:02N 51°23' W 129°50'016.7
2018-Sep-22 23:00N 51°23' W 129°49'1317.1
2018-Sep-22 22:16N 51°11' W 129°43'417.1
2018-Sep-22 22:03N 51°07' W 129°42'116.8
2018-Sep-22 22:00N 51°07' W 129°41'816.7
2018-Sep-22 21:30N 50°59' W 129°37'716.3
2018-Sep-22 21:03N 50°52' W 129°34'116.4
2018-Sep-22 21:00N 50°51' W 129°34'816.0
2018-Sep-22 20:30N 50°43' W 129°30'715.9
2018-Sep-22 20:03N 50°36' W 129°26'10019.8
2018-Sep-22 15:00N 49°00' W 128°42'6315.8 320 / 321012.1 5.4 15.0 9.714.0
2018-Sep-22 11:00N 48°00' W 128°12'11314.1 320 / 391010.210.8 15.011.014.0
2018-Sep-22 03:00N 46°12' W 127°24'15018.8 260 / 401007.110.8 17.515.916.0
2018-Sep-21 19:00N 43°48' W 126°24'9618.1 240 / 201016.010.8 17.515.916.0
2018-Sep-21 13:42N 42°16' W 125°47'3621.2
2018-Sep-21 12:00N 41°42' W 125°30'11819.7 350 / 241015.510.8 16.012.715.0
2018-Sep-21 06:00N 39°48' W 124°48'4417.5 350 / 351013.410.8 15.012.112.0
2018-Sep-21 03:30N 39°08' W 124°26'4019.2
2018-Sep-21 01:24N 38°30' W 124°09'720.0
2018-Sep-21 01:03N 38°24' W 124°06'220.1
2018-Sep-21 00:58N 38°22' W 124°05'920.1
2018-Sep-21 00:30N 38°13' W 124°01'919.1
2018-Sep-21 00:03N 38°05' W 123°57'118.7
2018-Sep-21 00:00N 38°04' W 123°57'918.5
2018-Sep-20 23:30N 37°56' W 123°52'818.5
2018-Sep-20 23:03N 37°48' W 123°49'118.5
2018-Sep-20 23:00N 37°47' W 123°48'918.8
2018-Sep-20 22:30N 37°39' W 123°42'919.0
2018-Sep-20 22:03N 37°32' W 123°37'118.8
2018-Sep-20 22:00N 37°31' W 123°36'918.9
2018-Sep-20 21:30N 37°23' W 123°30'919.0
2018-Sep-20 21:03N 37°15' W 123°24'117.6
2018-Sep-20 21:00N 37°15' W 123°23'918.7
2018-Sep-20 20:30N 37°07' W 123°17'818.6
2018-Sep-20 20:03N 36°60' W 123°12'118.8
2018-Sep-20 20:00N 36°59' W 123°11'918.7
2018-Sep-20 19:30N 36°51' W 123°05'818.6
2018-Sep-20 19:03N 36°44' W 122°59'118.7
2018-Sep-20 19:00N 36°43' W 122°58'918.8
2018-Sep-20 18:30N 36°35' W 122°52'818.7
2018-Sep-20 18:03N 36°28' W 122°47'118.5
2018-Sep-20 18:00N 36°27' W 122°46'918.5
2018-Sep-20 17:31N 36°20' W 122°40'818.4
2018-Sep-20 17:03N 36°13' W 122°34'118.4
2018-Sep-20 17:00N 36°12' W 122°33'918.5
2018-Sep-20 16:30N 36°05' W 122°26'818.7
2018-Sep-20 16:03N 35°58' W 122°20'119.0
2018-Sep-20 16:01N 35°58' W 122°19'918.8
2018-Sep-20 15:30N 35°50' W 122°12'818.9
2018-Sep-20 15:03N 35°43' W 122°06'119.2
2018-Sep-20 15:00N 35°43' W 122°05'918.7
2018-Sep-20 14:30N 35°35' W 121°58'918.0
2018-Sep-20 13:59N 35°28' W 121°51'918.3
2018-Sep-20 13:30N 35°21' W 121°44'818.0
2018-Sep-20 13:03N 35°14' W 121°38'118.2
2018-Sep-20 13:00N 35°14' W 121°38'918.0
2018-Sep-20 12:30N 35°06' W 121°31'818.5
2018-Sep-20 12:03N 34°59' W 121°25'119.8
2018-Sep-20 12:01N 34°59' W 121°24'918.5
2018-Sep-20 11:30N 34°52' W 121°17'818.5
2018-Sep-20 11:04N 34°45' W 121°11'119.1
2018-Sep-20 11:00N 34°45' W 121°10'918.7
2018-Sep-20 10:30N 34°37' W 121°03'818.2
2018-Sep-20 10:04N 34°31' W 120°57'118.3
2018-Sep-20 10:00N 34°30' W 120°56'917.5
2018-Sep-20 09:30N 34°25' W 120°47'1018.8
2018-Sep-20 08:57N 34°22' W 120°35'919.4
2018-Sep-20 08:30N 34°20' W 120°25'919.8
2018-Sep-20 08:03N 34°18' W 120°15'120.1
2018-Sep-20 08:01N 34°18' W 120°13'1019.3
2018-Sep-20 07:30N 34°15' W 120°02'919.0
2018-Sep-20 07:03N 34°13' W 119°52'118.9
2018-Sep-20 07:00N 34°12' W 119°51'918.6
2018-Sep-20 06:30N 34°10' W 119°40'818.8
2018-Sep-20 06:03N 34°08' W 119°30'119.4
2018-Sep-20 06:01N 34°08' W 119°29'918.5
2018-Sep-20 05:31N 34°05' W 119°18'818.6
2018-Sep-20 05:03N 34°01' W 119°09'119.2
2018-Sep-20 05:01N 34°01' W 119°08'918.8
2018-Sep-20 04:30N 33°56' W 118°59'818.7
2018-Sep-20 04:04N 33°52' W 118°50'118.1
2018-Sep-20 04:01N 33°52' W 118°49'815.4
2018-Sep-20 03:30N 33°48' W 118°41'511.8
2018-Sep-20 03:03N 33°45' W 118°35'112.4
2018-Sep-20 03:00N 33°45' W 118°35'611.7
2018-Sep-20 02:29N 33°42' W 118°28'512.1
2018-Sep-20 02:03N 33°39' W 118°23'112.0
2018-Sep-20 02:00N 33°39' W 118°22'510.5
2018-Sep-20 01:30N 33°40' W 118°16'3 7.7
2018-Sep-20 01:03N 33°43' W 118°16'0 6.1
2018-Sep-20 01:00N 33°44' W 118°16'1 1.8
2018-Sep-20 00:30N 33°45' W 118°17'0 0.0
2018-Sep-20 00:03N 33°45' W 118°17'0 0.0
2018-Sep-20 00:00N 33°45' W 118°17'0 0.0
2018-Sep-19 23:30N 33°45' W 118°17'0 0.0
2018-Sep-19 23:03N 33°45' W 118°17'0 0.0
2018-Sep-19 23:00N 33°45' W 118°17'0 0.0
2018-Sep-19 22:30N 33°45' W 118°17'0 0.0
2018-Sep-19 22:03N 33°45' W 118°17'0 0.0
2018-Sep-19 22:00N 33°45' W 118°17'0 0.0
2018-Sep-19 21:30N 33°45' W 118°17'0 0.0
2018-Sep-19 21:03N 33°45' W 118°17'0 0.0
2018-Sep-19 21:00N 33°45' W 118°17'0 0.0
2018-Sep-19 20:30N 33°45' W 118°17'0 0.0
2018-Sep-19 20:03N 33°45' W 118°17'0 0.0
2018-Sep-19 20:00N 33°45' W 118°17'0 0.0
2018-Sep-19 19:30N 33°45' W 118°17'0 0.0
2018-Sep-19 19:03N 33°45' W 118°17'0 0.0
2018-Sep-19 19:00N 33°45' W 118°17'0 0.0
2018-Sep-19 18:30N 33°45' W 118°17'0 0.0
2018-Sep-19 18:03N 33°45' W 118°17'0 0.0
2018-Sep-19 18:00N 33°45' W 118°17'0 0.0
2018-Sep-19 17:30N 33°45' W 118°17'0 0.0
2018-Sep-19 17:03N 33°45' W 118°17'0 0.0
2018-Sep-19 17:00N 33°45' W 118°17'0 0.0
2018-Sep-19 16:30N 33°45' W 118°17'0 0.0
2018-Sep-19 16:03N 33°45' W 118°17'0 0.0
2018-Sep-19 16:00N 33°45' W 118°17'0 0.0
2018-Sep-19 15:30N 33°45' W 118°17'0 0.0
2018-Sep-19 15:03N 33°45' W 118°17'0 0.0
2018-Sep-19 15:00N 33°45' W 118°17'0 0.0
2018-Sep-19 14:03N 33°45' W 118°17'0 0.0
2018-Sep-19 13:30N 33°45' W 118°17'1 1.2
2018-Sep-19 13:03N 33°44' W 118°17'0 2.6
2018-Sep-19 13:00N 33°44' W 118°16'1 1.9
2018-Sep-19 12:30N 33°43' W 118°16'3 6.8
2018-Sep-19 12:03N 33°40' W 118°14'0 8.1
2018-Sep-19 12:00N 33°40' W 118°14'4 8.7
2018-Sep-19 11:30N 33°36' W 118°16'4 9.5
2018-Sep-19 11:03N 33°36' W 118°21'0 9.2
2018-Sep-19 11:00N 33°37' W 118°22'5 9.4
2018-Sep-19 10:30N 33°39' W 118°27'4 9.7
2018-Sep-19 10:03N 33°41' W 118°31'0 9.3
2018-Sep-19 10:00N 33°41' W 118°32'6387.5
2018-Sep-19 10:00N 33°36' W 118°30'1020.2 200 / 101009.410.8 18.516.215.0
2018-Sep-19 09:30N 33°44' W 118°37'4 9.9
2018-Sep-19 09:03N 33°45' W 118°42'010.0
2018-Sep-19 09:00N 33°45' W 118°43'510.5
2018-Sep-19 08:30N 33°45' W 118°49'510.3
2018-Sep-19 08:03N 33°45' W 118°55'111.0
2018-Sep-19 08:00N 33°45' W 118°55'510.3
2018-Sep-19 07:30N 33°45' W 119°02'510.3
2018-Sep-19 07:03N 33°45' W 119°07'110.7
2018-Sep-19 07:00N 33°45' W 119°08'510.3
2018-Sep-19 06:30N 33°45' W 119°14'4 9.5
2018-Sep-19 06:03N 33°49' W 119°17'110.6
2018-Sep-19 06:00N 33°49' W 119°17'510.0
2018-Sep-19 05:30N 33°54' W 119°17'510.3
2018-Sep-19 05:03N 33°59' W 119°17'110.2
2018-Sep-19 05:00N 33°59' W 119°17'5 9.2
2018-Sep-19 04:30N 34°03' W 119°20'510.0
2018-Sep-19 04:03N 34°04' W 119°25'110.5
2018-Sep-19 04:00N 34°04' W 119°26'510.0
2018-Sep-19 03:30N 34°06' W 119°32'510.0
2018-Sep-19 03:03N 34°07' W 119°37'1 9.7
2018-Sep-19 03:00N 34°07' W 119°37'510.0
2018-Sep-19 02:30N 34°09' W 119°43'5 9.8
2018-Sep-19 02:01N 34°14' W 119°43'010.5
2018-Sep-19 02:00N 34°14' W 119°43'510.2
2018-Sep-19 01:29N 34°19' W 119°42'4 9.7
2018-Sep-19 01:03N 34°23' W 119°41'0 6.6
2018-Sep-19 01:00N 34°23' W 119°41'0 0.9
2018-Sep-19 00:30N 34°24' W 119°41'0 0.1
2018-Sep-19 00:03N 34°24' W 119°41'0 1.0
2018-Sep-19 00:00N 34°24' W 119°41'0 0.0
2018-Sep-18 23:30N 34°24' W 119°41'0 0.0
2018-Sep-18 23:03N 34°24' W 119°41'0 0.0
2018-Sep-18 23:00N 34°24' W 119°41'0 0.0
2018-Sep-18 22:30N 34°24' W 119°41'0 0.1
2018-Sep-18 22:03N 34°24' W 119°41'0 0.1
2018-Sep-18 22:00N 34°24' W 119°41'0 0.0
2018-Sep-18 21:30N 34°24' W 119°41'0 0.1
2018-Sep-18 21:02N 34°24' W 119°41'0 0.0
2018-Sep-18 20:59N 34°24' W 119°41'0 0.0
2018-Sep-18 20:30N 34°24' W 119°41'0 0.1
2018-Sep-18 20:03N 34°24' W 119°41'0 0.0
2018-Sep-18 20:00N 34°24' W 119°41'0 0.0
2018-Sep-18 19:30N 34°24' W 119°41'0 0.1
2018-Sep-18 19:03N 34°24' W 119°41'0 0.0
2018-Sep-18 18:57N 34°24' W 119°41'0 0.1
2018-Sep-18 18:29N 34°24' W 119°41'0 0.1
2018-Sep-18 18:02N 34°24' W 119°41'0 0.0
2018-Sep-18 18:00N 34°24' W 119°41'0 0.0
2018-Sep-18 17:30N 34°24' W 119°41'0 0.1
2018-Sep-18 17:03N 34°24' W 119°41'0 0.1
2018-Sep-18 17:00N 34°24' W 119°41'0 0.1
2018-Sep-18 16:30N 34°24' W 119°41'0 0.0
2018-Sep-18 16:03N 34°24' W 119°41'0 0.0
2018-Sep-18 16:00N 34°24' W 119°41'0 0.0
2018-Sep-18 15:30N 34°24' W 119°41'0 0.0
2018-Sep-18 15:01N 34°24' W 119°41'0 0.0
2018-Sep-18 14:59N 34°24' W 119°41'0 0.0
2018-Sep-18 14:03N 34°24' W 119°41'0 1.3
2018-Sep-18 14:00N 34°24' W 119°41'1 1.7
2018-Sep-18 13:30N 34°23' W 119°41'5 9.2
2018-Sep-18 12:59N 34°18' W 119°42'510.1
2018-Sep-18 12:29N 34°13' W 119°43'4 9.3
2018-Sep-18 12:03N 34°10' W 119°45'110.0
2018-Sep-18 12:00N 34°10' W 119°46'510.2
2018-Sep-18 11:30N 34°11' W 119°52'510.1
2018-Sep-18 11:03N 34°12' W 119°57'1 9.8
2018-Sep-18 11:00N 34°12' W 119°58'510.1
2018-Sep-18 10:28N 34°13' W 120°04'410.1
2018-Sep-18 10:03N 34°14' W 120°09'010.5
2018-Sep-18 10:00N 34°15' W 120°10'4268.7
2018-Sep-18 10:00N 34°12' W 120°06'917.6 310 / 271012.410.8 15.513.013.0
2018-Sep-18 09:29N 34°16' W 120°16'4 9.7
2018-Sep-18 09:03N 34°17' W 120°21'0 9.8
2018-Sep-18 09:00N 34°17' W 120°21'5 9.8
2018-Sep-18 08:28N 34°19' W 120°27'4 9.8
2018-Sep-18 08:03N 34°20' W 120°32'110.0
2018-Sep-18 07:59N 34°20' W 120°33'5 9.4
2018-Sep-18 07:30N 34°21' W 120°38'4 9.7
2018-Sep-18 07:03N 34°22' W 120°43'1 9.5
2018-Sep-18 06:59N 34°22' W 120°44'5 9.6
2018-Sep-18 06:30N 34°24' W 120°49'4 9.7
2018-Sep-18 06:03N 34°25' W 120°54'110.1
2018-Sep-18 06:00N 34°25' W 120°55'5 9.8
2018-Sep-18 05:30N 34°26' W 121°01'410.1
2018-Sep-18 05:03N 34°27' W 121°06'110.1
2018-Sep-18 05:00N 34°27' W 121°07'5 9.9
2018-Sep-18 04:30N 34°30' W 121°12'4 9.7
2018-Sep-18 04:03N 34°33' W 121°16'110.0
2018-Sep-18 04:00N 34°33' W 121°16'5 9.5
2018-Sep-18 03:30N 34°36' W 121°20'4 8.9
2018-Sep-18 03:03N 34°40' W 121°23'0 9.1
2018-Sep-18 03:00N 34°40' W 121°23'5 9.1
2018-Sep-18 02:30N 34°45' W 121°24'4 9.2
2018-Sep-18 02:03N 34°49' W 121°25'0 9.4
2018-Sep-18 02:00N 34°49' W 121°25'5 9.5
2018-Sep-18 01:30N 34°54' W 121°26'4 9.6
2018-Sep-18 01:03N 34°58' W 121°28'0 9.6
2018-Sep-18 01:00N 34°58' W 121°28'5 9.4
2018-Sep-18 00:30N 35°03' W 121°30'410.0
2018-Sep-18 00:03N 35°06' W 121°33'110.1
2018-Sep-18 00:00N 35°07' W 121°34'5 9.9
2018-Sep-17 23:30N 35°11' W 121°37'4 9.6
2018-Sep-17 23:03N 35°14' W 121°41'0 9.6
2018-Sep-17 23:00N 35°14' W 121°41'5 9.8
2018-Sep-17 22:30N 35°18' W 121°45'4 9.9
2018-Sep-17 22:03N 35°22' W 121°48'010.1
2018-Sep-17 22:00N 35°22' W 121°48'510.0
2018-Sep-17 21:30N 35°26' W 121°52'510.3
2018-Sep-17 21:03N 35°30' W 121°55'110.1
2018-Sep-17 21:00N 35°31' W 121°56'510.1
2018-Sep-17 20:30N 35°35' W 121°59'510.1
2018-Sep-17 20:03N 35°38' W 122°03'110.6
2018-Sep-17 20:00N 35°39' W 122°03'510.1
2018-Sep-17 19:30N 35°43' W 122°07'510.4
2018-Sep-17 19:03N 35°47' W 122°10'110.0
2018-Sep-17 18:58N 35°47' W 122°11'510.3
2018-Sep-17 18:30N 35°51' W 122°14'510.4
2018-Sep-17 18:03N 35°55' W 122°18'110.3
2018-Sep-17 18:00N 35°55' W 122°18'510.3
2018-Sep-17 17:30N 35°59' W 122°22'510.2
2018-Sep-17 17:03N 36°03' W 122°25'110.8
2018-Sep-17 17:00N 36°04' W 122°26'510.3
2018-Sep-17 16:30N 36°08' W 122°29'510.6
2018-Sep-17 16:03N 36°12' W 122°33'010.3
2018-Sep-17 16:00N 36°12' W 122°33'510.6
2018-Sep-17 15:30N 36°16' W 122°37'510.3
2018-Sep-17 15:03N 36°20' W 122°41'010.1
2018-Sep-17 15:00N 36°20' W 122°41'342274.4
2018-Sep-17 15:00N 36°54' W 122°48'2838.8 310 / 191015.610.8 14.713.913.0
2018-Sep-17 14:17N 36°26' W 122°46'310.0
2018-Sep-17 13:59N 36°29' W 122°49'5 9.5
2018-Sep-17 13:30N 36°33' W 122°51'5 9.9
2018-Sep-17 13:03N 36°37' W 122°50'010.0
2018-Sep-17 13:00N 36°38' W 122°50'510.0
2018-Sep-17 12:30N 36°43' W 122°50'4 9.6
2018-Sep-17 12:03N 36°47' W 122°50'0 9.5
2018-Sep-17 12:00N 36°48' W 122°50'510.1
2018-Sep-17 11:30N 36°53' W 122°50'510.2
2018-Sep-17 11:03N 36°57' W 122°50'110.2
2018-Sep-17 11:00N 36°58' W 122°50'612.2
2018-Sep-17 10:30N 37°04' W 122°48'612.4
2018-Sep-17 10:03N 37°09' W 122°46'111.3
2018-Sep-17 10:00N 37°10' W 122°46'611.4
2018-Sep-17 09:30N 37°15' W 122°45'511.6
2018-Sep-17 09:03N 37°21' W 122°44'111.6
2018-Sep-17 09:00N 37°21' W 122°44'611.6
2018-Sep-17 08:30N 37°27' W 122°43'511.6
2018-Sep-17 08:03N 37°32' W 122°44'111.4
2018-Sep-17 08:00N 37°33' W 122°44'611.4
2018-Sep-17 07:30N 37°38' W 122°43'612.7
2018-Sep-17 07:03N 37°44' W 122°41'112.5
2018-Sep-17 07:00N 37°44' W 122°41'612.6
2018-Sep-17 06:30N 37°47' W 122°34'715.2
2018-Sep-17 06:03N 37°49' W 122°25'111.2
2018-Sep-17 06:00N 37°49' W 122°25'1 1.3
2018-Sep-17 05:29N 37°48' W 122°24'0 0.0
2018-Sep-17 04:59N 37°48' W 122°24'0 0.0
2018-Sep-17 04:29N 37°48' W 122°24'0 0.0
2018-Sep-17 03:59N 37°48' W 122°24'0 0.0
2018-Sep-17 03:29N 37°48' W 122°24'0 0.0
2018-Sep-17 02:59N 37°48' W 122°24'0 0.0
2018-Sep-17 02:29N 37°48' W 122°24'0 0.0
2018-Sep-17 01:59N 37°48' W 122°24'0 0.0
2018-Sep-17 01:29N 37°48' W 122°24'0 0.0
2018-Sep-17 00:59N 37°48' W 122°24'0 0.0
2018-Sep-17 00:29N 37°48' W 122°24'0 0.0
2018-Sep-16 23:59N 37°48' W 122°24'0 0.0
2018-Sep-16 23:29N 37°48' W 122°24'0 0.0
2018-Sep-16 22:59N 37°48' W 122°24'0 0.0
2018-Sep-16 22:29N 37°48' W 122°24'0 0.0
2018-Sep-16 21:59N 37°48' W 122°24'0 0.0
2018-Sep-16 21:29N 37°48' W 122°24'0 0.0
2018-Sep-16 20:59N 37°48' W 122°24'0 0.0
2018-Sep-16 20:29N 37°48' W 122°24'0 0.0
2018-Sep-16 19:59N 37°48' W 122°24'0 0.0
2018-Sep-16 19:29N 37°48' W 122°24'0 0.0
2018-Sep-16 18:59N 37°48' W 122°24'0 0.0
2018-Sep-16 18:29N 37°48' W 122°24'0 0.0
2018-Sep-16 17:59N 37°48' W 122°24'0 0.0
2018-Sep-16 17:29N 37°48' W 122°24'0 0.0
2018-Sep-16 16:59N 37°48' W 122°24'0 0.0
2018-Sep-16 16:29N 37°48' W 122°24'0 0.0
2018-Sep-16 15:59N 37°48' W 122°24'0 0.0
2018-Sep-16 15:29N 37°48' W 122°24'0 0.0
2018-Sep-16 14:59N 37°48' W 122°24'0 0.0
2018-Sep-16 13:59N 37°48' W 122°24'0 0.0
2018-Sep-16 13:30N 37°48' W 122°24'1 2.5
2018-Sep-16 13:03N 37°49' W 122°25'0 8.5
2018-Sep-16 13:00N 37°49' W 122°26'611.9
2018-Sep-16 12:30N 37°47' W 122°33'614.1
2018-Sep-16 12:04N 37°46' W 122°41'110.3
2018-Sep-16 12:00N 37°46' W 122°41'5 9.6
2018-Sep-16 11:30N 37°47' W 122°47'410.0
2018-Sep-16 11:03N 37°49' W 122°52'0 9.9
2018-Sep-16 11:00N 37°49' W 122°53'510.3
2018-Sep-16 10:31N 37°52' W 122°59'510.2
2018-Sep-16 10:03N 37°54' W 123°04'110.4
2018-Sep-16 10:00N 37°54' W 123°04'3239.6
2018-Sep-16 10:00N 37°54' W 123°00'816.7 310 / 231015.510.8 13.512.712.0
2018-Sep-16 09:30N 37°57' W 123°10'4 9.6
2018-Sep-16 09:03N 37°60' W 123°14'1 9.7
2018-Sep-16 09:00N 38°00' W 123°14'510.0
2018-Sep-16 08:30N 38°04' W 123°18'4 9.8
2018-Sep-16 08:03N 38°07' W 123°22'0 9.4
2018-Sep-16 08:00N 38°08' W 123°22'715.0
2018-Sep-16 07:30N 38°13' W 123°29'818.4
2018-Sep-16 07:03N 38°18' W 123°37'118.4
2018-Sep-16 07:00N 38°19' W 123°38'917.9
2018-Sep-16 06:30N 38°25' W 123°46'817.6
2018-Sep-16 06:03N 38°31' W 123°54'117.7
2018-Sep-16 06:00N 38°31' W 123°54'917.8
2018-Sep-16 05:30N 38°37' W 124°03'35917.2
2018-Sep-15 08:37N 44°35' W 124°36'318.0
2018-Sep-15 08:26N 44°38' W 124°35'2418.0
2018-Sep-15 07:05N 45°02' W 124°28'118.1
2018-Sep-15 07:03N 45°03' W 124°28'118.1
2018-Sep-15 06:59N 45°04' W 124°28'1318.0
2018-Sep-15 06:17N 45°16' W 124°24'418.0
2018-Sep-15 06:04N 45°20' W 124°23'118.3
2018-Sep-15 06:00N 45°21' W 124°23'917.9
2018-Sep-15 05:30N 45°30' W 124°20'817.7
2018-Sep-15 05:04N 45°38' W 124°18'118.0
2018-Sep-15 05:01N 45°39' W 124°18'917.9
2018-Sep-15 04:31N 45°47' W 124°16'817.5
2018-Sep-15 04:04N 45°55' W 124°14'116.2
2018-Sep-15 04:01N 45°56' W 124°13'816.3
2018-Sep-15 03:31N 46°04' W 124°11'1014.1
2018-Sep-15 02:48N 46°14' W 124°07'413.4
2018-Sep-15 02:30N 46°16' W 124°02'613.5
2018-Sep-15 02:03N 46°12' W 123°55'112.8
2018-Sep-15 02:00N 46°12' W 123°55'2 2.9
2018-Sep-15 01:14N 46°11' W 123°51'0 0.0
2018-Sep-15 00:59N 46°11' W 123°51'0 0.0
2018-Sep-15 00:21N 46°11' W 123°51'0 0.0
2018-Sep-15 00:02N 46°11' W 123°51'0 0.0
2018-Sep-14 23:59N 46°11' W 123°51'0 0.0
2018-Sep-14 23:29N 46°11' W 123°51'0 0.0
2018-Sep-14 23:02N 46°11' W 123°51'0 0.0
2018-Sep-14 22:56N 46°11' W 123°51'0 0.0
2018-Sep-14 22:29N 46°11' W 123°51'0 0.0
2018-Sep-14 21:59N 46°11' W 123°51'0 0.0
2018-Sep-14 21:29N 46°11' W 123°51'0 0.0
2018-Sep-14 21:02N 46°11' W 123°51'0 0.0
2018-Sep-14 20:56N 46°11' W 123°51'0 0.0
2018-Sep-14 20:29N 46°11' W 123°51'0 0.0
2018-Sep-14 20:02N 46°11' W 123°51'0 0.0
2018-Sep-14 19:59N 46°11' W 123°51'0 0.0
2018-Sep-14 19:14N 46°11' W 123°51'0 0.0
2018-Sep-14 19:02N 46°11' W 123°51'0 0.0
2018-Sep-14 18:56N 46°11' W 123°51'0 0.0
2018-Sep-14 18:29N 46°11' W 123°51'0 0.0
2018-Sep-14 18:02N 46°11' W 123°51'0 0.0
2018-Sep-14 17:59N 46°11' W 123°51'0 0.0
2018-Sep-14 17:29N 46°11' W 123°51'0 0.0
2018-Sep-14 16:59N 46°11' W 123°51'0 0.0
2018-Sep-14 16:29N 46°11' W 123°51'0 0.0
2018-Sep-14 15:59N 46°11' W 123°51'0 0.0
2018-Sep-14 15:29N 46°11' W 123°51'0 0.0
2018-Sep-14 15:02N 46°11' W 123°51'0 0.0
2018-Sep-14 14:59N 46°11' W 123°51'1 1.4
2018-Sep-14 14:02N 46°11' W 123°53'0 6.9
2018-Sep-14 14:01N 46°11' W 123°54'612.5
2018-Sep-14 13:30N 46°15' W 124°01'714.9
2018-Sep-14 13:00N 46°13' W 124°11'611.3
2018-Sep-14 12:30N 46°16' W 124°18'715.6
2018-Sep-14 12:03N 46°22' W 124°23'114.8
2018-Sep-14 12:00N 46°22' W 124°24'815.4
2018-Sep-14 11:30N 46°29' W 124°29'817.8
2018-Sep-14 11:03N 46°36' W 124°35'118.0
2018-Sep-14 11:00N 46°37' W 124°36'917.8
2018-Sep-14 10:30N 46°44' W 124°42'817.8
2018-Sep-14 10:03N 46°51' W 124°48'117.7
2018-Sep-14 10:00N 46°52' W 124°49'2139.2
2018-Sep-14 10:00N 46°54' W 124°48'815.7 150 / 181015.510.8 14.312.112.0
2018-Sep-14 09:30N 46°60' W 124°55'817.5
2018-Sep-14 09:03N 47°07' W 125°01'117.4
2018-Sep-14 09:00N 47°07' W 125°02'917.5
2018-Sep-14 08:28N 47°16' W 125°05'717.6
2018-Sep-14 08:03N 47°24' W 125°08'  
Track history (hours):
 
Tides and Currents Weather Stations Pressure Air Temp Water Temp Dewpoint Dewpoint Depression Visibility Wind Speed Wind Dir Waves Ship Positions

Coral Princess

Operator: Princess Cruises

Last reported at 2018-Sep-24 07:00 UTC. Time now 2018-Sep-24 21:01 UTC.
Position N 56°00' W 133°54'.

Type: Passenger vessel. MMSI: 310376000.

Wind from 220 at 20 knots

Barometer 1018.7 mb
Air temperature 11.6 ° C
Visibility: greater than 10.8 NM
Dewpoint 9.8 ° C
Water temperature 10.0 ° C

Date/timePositionNaut miles runAvg speedWind from/ knotsBaromVisibWave heightAir tempDewpointWater temp
2018-Sep-24 07:00N 56°00' W 133°54'112 6.0 220 / 201018.710.8 11.6 9.810.0
2018-Sep-23 12:19N 54°59' W 131°09'414.7
2018-Sep-23 12:03N 54°55' W 131°08'2115.0
2018-Sep-23 10:41N 54°35' W 131°18'316.0
2018-Sep-23 10:30N 54°32' W 131°16'716.0
2018-Sep-23 10:03N 54°26' W 131°11'116.5
2018-Sep-23 10:00N 54°25' W 131°11'816.1
2018-Sep-23 09:30N 54°17' W 131°06'716.3
2018-Sep-23 09:03N 54°10' W 131°02'116.3
2018-Sep-23 09:00N 54°10' W 131°01'816.3
2018-Sep-23 08:30N 54°02' W 130°59'817.4
2018-Sep-23 08:03N 53°54' W 130°56'118.2
2018-Sep-23 08:00N 53°53' W 130°56'918.0
2018-Sep-23 07:30N 53°44' W 130°54'1428.1
2018-Sep-23 07:00N 53°30' W 130°48'447.8 320 / 81017.310.8 13.011.312.0
2018-Sep-23 06:55N 53°34' W 130°51'717.7
2018-Sep-23 06:30N 53°27' W 130°48'818.1
2018-Sep-23 06:03N 53°19' W 130°45'118.1
2018-Sep-23 06:00N 53°18' W 130°45'917.8
2018-Sep-23 05:30N 53°09' W 130°42'715.8
2018-Sep-23 05:04N 53°02' W 130°39'114.7
2018-Sep-23 05:01N 53°02' W 130°39'714.5
2018-Sep-23 04:30N 52°55' W 130°35'715.3
2018-Sep-23 04:04N 52°48' W 130°32'117.9
2018-Sep-23 04:01N 52°47' W 130°31'918.0
2018-Sep-23 03:30N 52°39' W 130°27'818.2
2018-Sep-23 03:03N 52°31' W 130°23'118.5
2018-Sep-23 03:00N 52°30' W 130°23'918.5
2018-Sep-23 02:30N 52°21' W 130°18'917.8
2018-Sep-23 02:01N 52°13' W 130°14'117.9
2018-Sep-23 01:59N 52°12' W 130°14'917.9
2018-Sep-23 01:30N 52°04' W 130°10'817.9
2018-Sep-23 01:03N 51°56' W 130°06'117.3
2018-Sep-23 01:00N 51°55' W 130°06'917.4
2018-Sep-23 00:30N 51°47' W 130°01'716.9
2018-Sep-23 00:03N 51°40' W 129°58'116.5
2018-Sep-23 00:01N 51°39' W 129°57'916.9
2018-Sep-22 23:27N 51°30' W 129°53'717.0
2018-Sep-22 23:02N 51°23' W 129°50'016.7
2018-Sep-22 23:00N 51°23' W 129°49'1317.1
2018-Sep-22 22:16N 51°11' W 129°43'417.1
2018-Sep-22 22:03N 51°07' W 129°42'116.8
2018-Sep-22 22:00N 51°07' W 129°41'816.7
2018-Sep-22 21:30N 50°59' W 129°37'716.3
2018-Sep-22 21:03N 50°52' W 129°34'116.4
2018-Sep-22 21:00N 50°51' W 129°34'816.0
2018-Sep-22 20:30N 50°43' W 129°30'715.9
2018-Sep-22 20:03N 50°36' W 129°26'10019.8
2018-Sep-22 15:00N 49°00' W 128°42'6315.8 320 / 321012.1 5.4 15.0 9.714.0
2018-Sep-22 11:00N 48°00' W 128°12'11314.1 320 / 391010.210.8 15.011.014.0
2018-Sep-22 03:00N 46°12' W 127°24'15018.8 260 / 401007.110.8 17.515.916.0
2018-Sep-21 19:00N 43°48' W 126°24'9618.1 240 / 201016.010.8 17.515.916.0
2018-Sep-21 13:42N 42°16' W 125°47'3621.2
2018-Sep-21 12:00N 41°42' W 125°30'11819.7 350 / 241015.510.8 16.012.715.0
2018-Sep-21 06:00N 39°48' W 124°48'4417.5 350 / 351013.410.8 15.012.112.0
2018-Sep-21 03:30N 39°08' W 124°26'4019.2
2018-Sep-21 01:24N 38°30' W 124°09'720.0
2018-Sep-21 01:03N 38°24' W 124°06'220.1
2018-Sep-21 00:58N 38°22' W 124°05'920.1
2018-Sep-21 00:30N 38°13' W 124°01'919.1
2018-Sep-21 00:03N 38°05' W 123°57'118.7
2018-Sep-21 00:00N 38°04' W 123°57'918.5
2018-Sep-20 23:30N 37°56' W 123°52'818.5
2018-Sep-20 23:03N 37°48' W 123°49'118.5
2018-Sep-20 23:00N 37°47' W 123°48'918.8
2018-Sep-20 22:30N 37°39' W 123°42'919.0
2018-Sep-20 22:03N 37°32' W 123°37'118.8
2018-Sep-20 22:00N 37°31' W 123°36'918.9
2018-Sep-20 21:30N 37°23' W 123°30'919.0
2018-Sep-20 21:03N 37°15' W 123°24'117.6
2018-Sep-20 21:00N 37°15' W 123°23'918.7
2018-Sep-20 20:30N 37°07' W 123°17'818.6
2018-Sep-20 20:03N 36°60' W 123°12'118.8
2018-Sep-20 20:00N 36°59' W 123°11'918.7
2018-Sep-20 19:30N 36°51' W 123°05'818.6
2018-Sep-20 19:03N 36°44' W 122°59'118.7
2018-Sep-20 19:00N 36°43' W 122°58'918.8
2018-Sep-20 18:30N 36°35' W 122°52'818.7
2018-Sep-20 18:03N 36°28' W 122°47'118.5
2018-Sep-20 18:00N 36°27' W 122°46'918.5
2018-Sep-20 17:31N 36°20' W 122°40'818.4
2018-Sep-20 17:03N 36°13' W 122°34'118.4
2018-Sep-20 17:00N 36°12' W 122°33'918.5
2018-Sep-20 16:30N 36°05' W 122°26'818.7
2018-Sep-20 16:03N 35°58' W 122°20'119.0
2018-Sep-20 16:01N 35°58' W 122°19'918.8
2018-Sep-20 15:30N 35°50' W 122°12'818.9
2018-Sep-20 15:03N 35°43' W 122°06'119.2
2018-Sep-20 15:00N 35°43' W 122°05'918.7
2018-Sep-20 14:30N 35°35' W 121°58'918.0
2018-Sep-20 13:59N 35°28' W 121°51'918.3
2018-Sep-20 13:30N 35°21' W 121°44'818.0
2018-Sep-20 13:03N 35°14' W 121°38'118.2
2018-Sep-20 13:00N 35°14' W 121°38'918.0
2018-Sep-20 12:30N 35°06' W 121°31'818.5
2018-Sep-20 12:03N 34°59' W 121°25'119.8
2018-Sep-20 12:01N 34°59' W 121°24'918.5
2018-Sep-20 11:30N 34°52' W 121°17'818.5
2018-Sep-20 11:04N 34°45' W 121°11'119.1
2018-Sep-20 11:00N 34°45' W 121°10'918.7
2018-Sep-20 10:30N 34°37' W 121°03'818.2
2018-Sep-20 10:04N 34°31' W 120°57'118.3
2018-Sep-20 10:00N 34°30' W 120°56'917.5
2018-Sep-20 09:30N 34°25' W 120°47'1018.8
2018-Sep-20 08:57N 34°22' W 120°35'919.4
2018-Sep-20 08:30N 34°20' W 120°25'919.8
2018-Sep-20 08:03N 34°18' W 120°15'120.1
2018-Sep-20 08:01N 34°18' W 120°13'1019.3
2018-Sep-20 07:30N 34°15' W 120°02'919.0
2018-Sep-20 07:03N 34°13' W 119°52'118.9
2018-Sep-20 07:00N 34°12' W 119°51'918.6
2018-Sep-20 06:30N 34°10' W 119°40'818.8
2018-Sep-20 06:03N 34°08' W 119°30'119.4
2018-Sep-20 06:01N 34°08' W 119°29'918.5
2018-Sep-20 05:31N 34°05' W 119°18'818.6
2018-Sep-20 05:03N 34°01' W 119°09'119.2
2018-Sep-20 05:01N 34°01' W 119°08'918.8
2018-Sep-20 04:30N 33°56' W 118°59'818.7
2018-Sep-20 04:04N 33°52' W 118°50'118.1
2018-Sep-20 04:01N 33°52' W 118°49'815.4
2018-Sep-20 03:30N 33°48' W 118°41'511.8
2018-Sep-20 03:03N 33°45' W 118°35'112.4
2018-Sep-20 03:00N 33°45' W 118°35'611.7
2018-Sep-20 02:29N 33°42' W 118°28'512.1
2018-Sep-20 02:03N 33°39' W 118°23'112.0
2018-Sep-20 02:00N 33°39' W 118°22'510.5
2018-Sep-20 01:30N 33°40' W 118°16'3 7.7
2018-Sep-20 01:03N 33°43' W 118°16'0 6.1
2018-Sep-20 01:00N 33°44' W 118°16'1 1.8
2018-Sep-20 00:30N 33°45' W 118°17'0 0.0
2018-Sep-20 00:03N 33°45' W 118°17'0 0.0
2018-Sep-20 00:00N 33°45' W 118°17'0 0.0
2018-Sep-19 23:30N 33°45' W 118°17'0 0.0
2018-Sep-19 23:03N 33°45' W 118°17'0 0.0
2018-Sep-19 23:00N 33°45' W 118°17'0 0.0
2018-Sep-19 22:30N 33°45' W 118°17'0 0.0
2018-Sep-19 22:03N 33°45' W 118°17'0 0.0
2018-Sep-19 22:00N 33°45' W 118°17'0 0.0
2018-Sep-19 21:30N 33°45' W 118°17'0 0.0
2018-Sep-19 21:03N 33°45' W 118°17'0 0.0
2018-Sep-19 21:00N 33°45' W 118°17'0 0.0
2018-Sep-19 20:30N 33°45' W 118°17'0 0.0
2018-Sep-19 20:03N 33°45' W 118°17'0 0.0
2018-Sep-19 20:00N 33°45' W 118°17'0 0.0
2018-Sep-19 19:30N 33°45' W 118°17'0 0.0
2018-Sep-19 19:03N 33°45' W 118°17'0 0.0
2018-Sep-19 19:00N 33°45' W 118°17'0 0.0
2018-Sep-19 18:30N 33°45' W 118°17'0 0.0
2018-Sep-19 18:03N 33°45' W 118°17'0 0.0
2018-Sep-19 18:00N 33°45' W 118°17'0 0.0
2018-Sep-19 17:30N 33°45' W 118°17'0 0.0
2018-Sep-19 17:03N 33°45' W 118°17'0 0.0
2018-Sep-19 17:00N 33°45' W 118°17'0 0.0
2018-Sep-19 16:30N 33°45' W 118°17'0 0.0
2018-Sep-19 16:03N 33°45' W 118°17'0 0.0
2018-Sep-19 16:00N 33°45' W 118°17'0 0.0
2018-Sep-19 15:30N 33°45' W 118°17'0 0.0
2018-Sep-19 15:03N 33°45' W 118°17'0 0.0
2018-Sep-19 15:00N 33°45' W 118°17'0 0.0
2018-Sep-19 14:03N 33°45' W 118°17'0 0.0
2018-Sep-19 13:30N 33°45' W 118°17'1 1.2
2018-Sep-19 13:03N 33°44' W 118°17'0 2.6
2018-Sep-19 13:00N 33°44' W 118°16'1 1.9
2018-Sep-19 12:30N 33°43' W 118°16'3 6.8
2018-Sep-19 12:03N 33°40' W 118°14'0 8.1
2018-Sep-19 12:00N 33°40' W 118°14'4 8.7
2018-Sep-19 11:30N 33°36' W 118°16'4 9.5
2018-Sep-19 11:03N 33°36' W 118°21'0 9.2
2018-Sep-19 11:00N 33°37' W 118°22'5 9.4
2018-Sep-19 10:30N 33°39' W 118°27'4 9.7
2018-Sep-19 10:03N 33°41' W 118°31'0 9.3
2018-Sep-19 10:00N 33°41' W 118°32'6387.5
2018-Sep-19 10:00N 33°36' W 118°30'1020.2 200 / 101009.410.8 18.516.215.0
2018-Sep-19 09:30N 33°44' W 118°37'4 9.9
2018-Sep-19 09:03N 33°45' W 118°42'010.0
2018-Sep-19 09:00N 33°45' W 118°43'510.5
2018-Sep-19 08:30N 33°45' W 118°49'510.3
2018-Sep-19 08:03N 33°45' W 118°55'111.0
2018-Sep-19 08:00N 33°45' W 118°55'510.3
2018-Sep-19 07:30N 33°45' W 119°02'510.3
2018-Sep-19 07:03N 33°45' W 119°07'110.7
2018-Sep-19 07:00N 33°45' W 119°08'510.3
2018-Sep-19 06:30N 33°45' W 119°14'4 9.5
2018-Sep-19 06:03N 33°49' W 119°17'110.6
2018-Sep-19 06:00N 33°49' W 119°17'510.0
2018-Sep-19 05:30N 33°54' W 119°17'510.3
2018-Sep-19 05:03N 33°59' W 119°17'110.2
2018-Sep-19 05:00N 33°59' W 119°17'5 9.2
2018-Sep-19 04:30N 34°03' W 119°20'510.0
2018-Sep-19 04:03N 34°04' W 119°25'110.5
2018-Sep-19 04:00N 34°04' W 119°26'510.0
2018-Sep-19 03:30N 34°06' W 119°32'510.0
2018-Sep-19 03:03N 34°07' W 119°37'1 9.7
2018-Sep-19 03:00N 34°07' W 119°37'510.0
2018-Sep-19 02:30N 34°09' W 119°43'5 9.8
2018-Sep-19 02:01N 34°14' W 119°43'010.5
2018-Sep-19 02:00N 34°14' W 119°43'510.2
2018-Sep-19 01:29N 34°19' W 119°42'4 9.7
2018-Sep-19 01:03N 34°23' W 119°41'0 6.6
2018-Sep-19 01:00N 34°23' W 119°41'0 0.9
2018-Sep-19 00:30N 34°24' W 119°41'0 0.1
2018-Sep-19 00:03N 34°24' W 119°41'0 1.0
2018-Sep-19 00:00N 34°24' W 119°41'0 0.0
2018-Sep-18 23:30N 34°24' W 119°41'0 0.0
2018-Sep-18 23:03N 34°24' W 119°41'0 0.0
2018-Sep-18 23:00N 34°24' W 119°41'0 0.0
2018-Sep-18 22:30N 34°24' W 119°41'0 0.1
2018-Sep-18 22:03N 34°24' W 119°41'0 0.1
2018-Sep-18 22:00N 34°24' W 119°41'0 0.0
2018-Sep-18 21:30N 34°24' W 119°41'0 0.1
2018-Sep-18 21:02N 34°24' W 119°41'0 0.0
2018-Sep-18 20:59N 34°24' W 119°41'0 0.0
2018-Sep-18 20:30N 34°24' W 119°41'0 0.1
2018-Sep-18 20:03N 34°24' W 119°41'0 0.0
2018-Sep-18 20:00N 34°24' W 119°41'0 0.0
2018-Sep-18 19:30N 34°24' W 119°41'0 0.1
2018-Sep-18 19:03N 34°24' W 119°41'0 0.0
2018-Sep-18 18:57N 34°24' W 119°41'0 0.1
2018-Sep-18 18:29N 34°24' W 119°41'0 0.1
2018-Sep-18 18:02N 34°24' W 119°41'0 0.0
2018-Sep-18 18:00N 34°24' W 119°41'0 0.0
2018-Sep-18 17:30N 34°24' W 119°41'0 0.1
2018-Sep-18 17:03N 34°24' W 119°41'0 0.1
2018-Sep-18 17:00N 34°24' W 119°41'0 0.1
2018-Sep-18 16:30N 34°24' W 119°41'0 0.0
2018-Sep-18 16:03N 34°24' W 119°41'0 0.0
2018-Sep-18 16:00N 34°24' W 119°41'0 0.0
2018-Sep-18 15:30N 34°24' W 119°41'0 0.0
2018-Sep-18 15:01N 34°24' W 119°41'0 0.0
2018-Sep-18 14:59N 34°24' W 119°41'0 0.0
2018-Sep-18 14:03N 34°24' W 119°41'0 1.3
2018-Sep-18 14:00N 34°24' W 119°41'1 1.7
2018-Sep-18 13:30N 34°23' W 119°41'5 9.2
2018-Sep-18 12:59N 34°18' W 119°42'510.1
2018-Sep-18 12:29N 34°13' W 119°43'4 9.3
2018-Sep-18 12:03N 34°10' W 119°45'110.0
2018-Sep-18 12:00N 34°10' W 119°46'510.2
2018-Sep-18 11:30N 34°11' W 119°52'510.1
2018-Sep-18 11:03N 34°12' W 119°57'1 9.8
2018-Sep-18 11:00N 34°12' W 119°58'510.1
2018-Sep-18 10:28N 34°13' W 120°04'410.1
2018-Sep-18 10:03N 34°14' W 120°09'010.5
2018-Sep-18 10:00N 34°15' W 120°10'4268.7
2018-Sep-18 10:00N 34°12' W 120°06'917.6 310 / 271012.410.8 15.513.013.0
2018-Sep-18 09:29N 34°16' W 120°16'4 9.7
2018-Sep-18 09:03N 34°17' W 120°21'0 9.8
2018-Sep-18 09:00N 34°17' W 120°21'5 9.8
2018-Sep-18 08:28N 34°19' W 120°27'4 9.8
2018-Sep-18 08:03N 34°20' W 120°32'110.0
2018-Sep-18 07:59N 34°20' W 120°33'5 9.4
2018-Sep-18 07:30N 34°21' W 120°38'4 9.7
2018-Sep-18 07:03N 34°22' W 120°43'1 9.5
2018-Sep-18 06:59N 34°22' W 120°44'5 9.6
2018-Sep-18 06:30N 34°24' W 120°49'4 9.7
2018-Sep-18 06:03N 34°25' W 120°54'110.1
2018-Sep-18 06:00N 34°25' W 120°55'5 9.8
2018-Sep-18 05:30N 34°26' W 121°01'410.1
2018-Sep-18 05:03N 34°27' W 121°06'110.1
2018-Sep-18 05:00N 34°27' W 121°07'5 9.9
2018-Sep-18 04:30N 34°30' W 121°12'4 9.7
2018-Sep-18 04:03N 34°33' W 121°16'110.0
2018-Sep-18 04:00N 34°33' W 121°16'5 9.5
2018-Sep-18 03:30N 34°36' W 121°20'4 8.9
2018-Sep-18 03:03N 34°40' W 121°23'0 9.1
2018-Sep-18 03:00N 34°40' W 121°23'5 9.1
2018-Sep-18 02:30N 34°45' W 121°24'4 9.2
2018-Sep-18 02:03N 34°49' W 121°25'0 9.4
2018-Sep-18 02:00N 34°49' W 121°25'5 9.5
2018-Sep-18 01:30N 34°54' W 121°26'4 9.6
2018-Sep-18 01:03N 34°58' W 121°28'0 9.6
2018-Sep-18 01:00N 34°58' W 121°28'5 9.4
2018-Sep-18 00:30N 35°03' W 121°30'410.0
2018-Sep-18 00:03N 35°06' W 121°33'110.1
2018-Sep-18 00:00N 35°07' W 121°34'5 9.9
2018-Sep-17 23:30N 35°11' W 121°37'4 9.6
2018-Sep-17 23:03N 35°14' W 121°41'0 9.6
2018-Sep-17 23:00N 35°14' W 121°41'5 9.8
2018-Sep-17 22:30N 35°18' W 121°45'4 9.9
2018-Sep-17 22:03N 35°22' W 121°48'010.1
2018-Sep-17 22:00N 35°22' W 121°48'510.0
2018-Sep-17 21:30N 35°26' W 121°52'510.3
2018-Sep-17 21:03N 35°30' W 121°55'110.1
2018-Sep-17 21:00N 35°31' W 121°56'510.1
2018-Sep-17 20:30N 35°35' W 121°59'510.1
2018-Sep-17 20:03N 35°38' W 122°03'110.6
2018-Sep-17 20:00N 35°39' W 122°03'510.1
2018-Sep-17 19:30N 35°43' W 122°07'510.4
2018-Sep-17 19:03N 35°47' W 122°10'110.0
2018-Sep-17 18:58N 35°47' W 122°11'510.3
2018-Sep-17 18:30N 35°51' W 122°14'510.4
2018-Sep-17 18:03N 35°55' W 122°18'110.3
2018-Sep-17 18:00N 35°55' W 122°18'510.3
2018-Sep-17 17:30N 35°59' W 122°22'510.2
2018-Sep-17 17:03N 36°03' W 122°25'110.8
2018-Sep-17 17:00N 36°04' W 122°26'510.3
2018-Sep-17 16:30N 36°08' W 122°29'510.6
2018-Sep-17 16:03N 36°12' W 122°33'010.3
2018-Sep-17 16:00N 36°12' W 122°33'510.6
2018-Sep-17 15:30N 36°16' W 122°37'510.3
2018-Sep-17 15:03N 36°20' W 122°41'010.1
2018-Sep-17 15:00N 36°20' W 122°41'342274.4
2018-Sep-17 15:00N 36°54' W 122°48'2838.8 310 / 191015.610.8 14.713.913.0
2018-Sep-17 14:17N 36°26' W 122°46'310.0
2018-Sep-17 13:59N 36°29' W 122°49'5 9.5
2018-Sep-17 13:30N 36°33' W 122°51'5 9.9
2018-Sep-17 13:03N 36°37' W 122°50'010.0
2018-Sep-17 13:00N 36°38' W 122°50'510.0
2018-Sep-17 12:30N 36°43' W 122°50'4 9.6
2018-Sep-17 12:03N 36°47' W 122°50'0 9.5
2018-Sep-17 12:00N 36°48' W 122°50'510.1
2018-Sep-17 11:30N 36°53' W 122°50'510.2
2018-Sep-17 11:03N 36°57' W 122°50'110.2
2018-Sep-17 11:00N 36°58' W 122°50'612.2
2018-Sep-17 10:30N 37°04' W 122°48'612.4
2018-Sep-17 10:03N 37°09' W 122°46'111.3
2018-Sep-17 10:00N 37°10' W 122°46'611.4
2018-Sep-17 09:30N 37°15' W 122°45'511.6
2018-Sep-17 09:03N 37°21' W 122°44'111.6
2018-Sep-17 09:00N 37°21' W 122°44'611.6
2018-Sep-17 08:30N 37°27' W 122°43'511.6
2018-Sep-17 08:03N 37°32' W 122°44'111.4
2018-Sep-17 08:00N 37°33' W 122°44'611.4
2018-Sep-17 07:30N 37°38' W 122°43'612.7
2018-Sep-17 07:03N 37°44' W 122°41'112.5
2018-Sep-17 07:00N 37°44' W 122°41'612.6
2018-Sep-17 06:30N 37°47' W 122°34'715.2
2018-Sep-17 06:03N 37°49' W 122°25'111.2
2018-Sep-17 06:00N 37°49' W 122°25'1 1.3
2018-Sep-17 05:29N 37°48' W 122°24'0 0.0
2018-Sep-17 04:59N 37°48' W 122°24'0 0.0
2018-Sep-17 04:29N 37°48' W 122°24'0 0.0
2018-Sep-17 03:59N 37°48' W 122°24'0 0.0
2018-Sep-17 03:29N 37°48' W 122°24'0 0.0
2018-Sep-17 02:59N 37°48' W 122°24'0 0.0
2018-Sep-17 02:29N 37°48' W 122°24'0 0.0
2018-Sep-17 01:59N 37°48' W 122°24'0 0.0
2018-Sep-17 01:29N 37°48' W 122°24'0 0.0
2018-Sep-17 00:59N 37°48' W 122°24'0 0.0
2018-Sep-17 00:29N 37°48' W 122°24'0 0.0
2018-Sep-16 23:59N 37°48' W 122°24'0 0.0
2018-Sep-16 23:29N 37°48' W 122°24'0 0.0
2018-Sep-16 22:59N 37°48' W 122°24'0 0.0
2018-Sep-16 22:29N 37°48' W 122°24'0 0.0
2018-Sep-16 21:59N 37°48' W 122°24'0 0.0
2018-Sep-16 21:29N 37°48' W 122°24'0 0.0
2018-Sep-16 20:59N 37°48' W 122°24'0 0.0
2018-Sep-16 20:29N 37°48' W 122°24'0 0.0
2018-Sep-16 19:59N 37°48' W 122°24'0 0.0
2018-Sep-16 19:29N 37°48' W 122°24'0 0.0
2018-Sep-16 18:59N 37°48' W 122°24'0 0.0
2018-Sep-16 18:29N 37°48' W 122°24'0 0.0
2018-Sep-16 17:59N 37°48' W 122°24'0 0.0
2018-Sep-16 17:29N 37°48' W 122°24'0 0.0
2018-Sep-16 16:59N 37°48' W 122°24'0 0.0
2018-Sep-16 16:29N 37°48' W 122°24'0 0.0
2018-Sep-16 15:59N 37°48' W 122°24'0 0.0
2018-Sep-16 15:29N 37°48' W 122°24'0 0.0
2018-Sep-16 14:59N 37°48' W 122°24'0 0.0
2018-Sep-16 13:59N 37°48' W 122°24'0 0.0
2018-Sep-16 13:30N 37°48' W 122°24'1 2.5
2018-Sep-16 13:03N 37°49' W 122°25'0 8.5
2018-Sep-16 13:00N 37°49' W 122°26'611.9
2018-Sep-16 12:30N 37°47' W 122°33'614.1
2018-Sep-16 12:04N 37°46' W 122°41'110.3
2018-Sep-16 12:00N 37°46' W 122°41'5 9.6
2018-Sep-16 11:30N 37°47' W 122°47'410.0
2018-Sep-16 11:03N 37°49' W 122°52'0 9.9
2018-Sep-16 11:00N 37°49' W 122°53'510.3
2018-Sep-16 10:31N 37°52' W 122°59'510.2
2018-Sep-16 10:03N 37°54' W 123°04'110.4
2018-Sep-16 10:00N 37°54' W 123°04'3239.6
2018-Sep-16 10:00N 37°54' W 123°00'816.7 310 / 231015.510.8 13.512.712.0
2018-Sep-16 09:30N 37°57' W 123°10'4 9.6
2018-Sep-16 09:03N 37°60' W 123°14'1 9.7
2018-Sep-16 09:00N 38°00' W 123°14'510.0
2018-Sep-16 08:30N 38°04' W 123°18'4 9.8
2018-Sep-16 08:03N 38°07' W 123°22'0 9.4
2018-Sep-16 08:00N 38°08' W 123°22'715.0
2018-Sep-16 07:30N 38°13' W 123°29'818.4
2018-Sep-16 07:03N 38°18' W 123°37'118.4
2018-Sep-16 07:00N 38°19' W 123°38'917.9
2018-Sep-16 06:30N 38°25' W 123°46'817.6
2018-Sep-16 06:03N 38°31' W 123°54'117.7
2018-Sep-16 06:00N 38°31' W 123°54'917.8
2018-Sep-16 05:30N 38°37' W 124°03'35917.2
2018-Sep-15 08:37N 44°35' W 124°36'318.0
2018-Sep-15 08:26N 44°38' W 124°35'2418.0
2018-Sep-15 07:05N 45°02' W 124°28'118.1
2018-Sep-15 07:03N 45°03' W 124°28'118.1
2018-Sep-15 06:59N 45°04' W 124°28'1318.0
2018-Sep-15 06:17N 45°16' W 124°24'418.0
2018-Sep-15 06:04N 45°20' W 124°23'118.3
2018-Sep-15 06:00N 45°21' W 124°23'917.9
2018-Sep-15 05:30N 45°30' W 124°20'817.7
2018-Sep-15 05:04N 45°38' W 124°18'118.0
2018-Sep-15 05:01N 45°39' W 124°18'917.9
2018-Sep-15 04:31N 45°47' W 124°16'817.5
2018-Sep-15 04:04N 45°55' W 124°14'116.2
2018-Sep-15 04:01N 45°56' W 124°13'816.3
2018-Sep-15 03:31N 46°04' W 124°11'1014.1
2018-Sep-15 02:48N 46°14' W 124°07'413.4
2018-Sep-15 02:30N 46°16' W 124°02'613.5
2018-Sep-15 02:03N 46°12' W 123°55'112.8
2018-Sep-15 02:00N 46°12' W 123°55'2 2.9
2018-Sep-15 01:14N 46°11' W 123°51'0 0.0
2018-Sep-15 00:59N 46°11' W 123°51'0 0.0
2018-Sep-15 00:21N 46°11' W 123°51'0 0.0
2018-Sep-15 00:02N 46°11' W 123°51'0 0.0
2018-Sep-14 23:59N 46°11' W 123°51'0 0.0
2018-Sep-14 23:29N 46°11' W 123°51'0 0.0
2018-Sep-14 23:02N 46°11' W 123°51'0 0.0
2018-Sep-14 22:56N 46°11' W 123°51'0 0.0
2018-Sep-14 22:29N 46°11' W 123°51'0 0.0
2018-Sep-14 21:59N 46°11' W 123°51'0 0.0
2018-Sep-14 21:29N 46°11' W 123°51'0 0.0
2018-Sep-14 21:02N 46°11' W 123°51'0 0.0
2018-Sep-14 20:56N 46°11' W 123°51'0 0.0
2018-Sep-14 20:29N 46°11' W 123°51'0 0.0
2018-Sep-14 20:02N 46°11' W 123°51'0 0.0
2018-Sep-14 19:59N 46°11' W 123°51'0 0.0
2018-Sep-14 19:14N 46°11' W 123°51'0 0.0
2018-Sep-14 19:02N 46°11' W 123°51'0 0.0
2018-Sep-14 18:56N 46°11' W 123°51'0 0.0
2018-Sep-14 18:29N 46°11' W 123°51'0 0.0
2018-Sep-14 18:02N 46°11' W 123°51'0 0.0
2018-Sep-14 17:59N 46°11' W 123°51'0 0.0
2018-Sep-14 17:29N 46°11' W 123°51'0 0.0
2018-Sep-14 16:59N 46°11' W 123°51'0 0.0
2018-Sep-14 16:29N 46°11' W 123°51'0 0.0
2018-Sep-14 15:59N 46°11' W 123°51'0 0.0
2018-Sep-14 15:29N 46°11' W 123°51'0 0.0
2018-Sep-14 15:02N 46°11' W 123°51'0 0.0
2018-Sep-14 14:59N 46°11' W 123°51'1 1.4
2018-Sep-14 14:02N 46°11' W 123°53'0 6.9
2018-Sep-14 14:01N 46°11' W 123°54'612.5
2018-Sep-14 13:30N 46°15' W 124°01'714.9
2018-Sep-14 13:00N 46°13' W 124°11'611.3
2018-Sep-14 12:30N 46°16' W 124°18'715.6
2018-Sep-14 12:03N 46°22' W 124°23'114.8
2018-Sep-14 12:00N 46°22' W 124°24'815.4
2018-Sep-14 11:30N 46°29' W 124°29'817.8
2018-Sep-14 11:03N 46°36' W 124°35'118.0
2018-Sep-14 11:00N 46°37' W 124°36'917.8
2018-Sep-14 10:30N 46°44' W 124°42'817.8
2018-Sep-14 10:03N 46°51' W 124°48'117.7
2018-Sep-14 10:00N 46°52' W 124°49'2139.2
2018-Sep-14 10:00N 46°54' W 124°48'815.7 150 / 181015.510.8 14.312.112.0
2018-Sep-14 09:30N 46°60' W 124°55'817.5
2018-Sep-14 09:03N 47°07' W 125°01'117.4
2018-Sep-14 09:00N 47°07' W 125°02'917.5
2018-Sep-14 08:28N 47°16' W 125°05'717.6
2018-Sep-14 08:03N 47°24' W 125°08'  

Dump ship's entire track history